• Join FlightAware (Why Join?)
  • Login
  • US Flag 
 
07:31PM EST


 

Airport Tracker/Info


-or-


 

Live Flight TrackerFlight Track Log ✈ TMC485 ✈ 01-May-2013 ✈ KSTL - KHOU

Flight Track Log - Related Links

Times and Time Zones

All times are in EDT time to prevent confusion due to time zone crossing. See the TMC485 flight status page for this flight to view local times or setup timezone preferences in your user account.

Time Position Orientation Groundspeed Altitude Reporting Facility
EDT Latitude Longitude Course Direction KTS MPH feet Rate Location/Type
12:09PM 38.7333 -90.3333 153° Southeast 175 201 1,600  Level Gateway (St. Louis) TRACON
12:10PM 38.6833 -90.3000 153° Southeast 232 267 4,000 2,640 Climbing Gateway (St. Louis) TRACON
12:11PM 38.6450 -90.3608 231° Southwest 230 265 7,300 2,820 Climbing Kansas City Center
12:12PM 38.6144 -90.4350 242° Southwest 229 264 10,100 2,340 Climbing Kansas City Center
12:13PM 38.5828 -90.5114 242° Southwest 237 273 12,200 2,040 Climbing Kansas City Center
12:14PM 38.5339 -90.6139 239° Southwest 279 321 14,400 1,740 Climbing Kansas City Center
12:15PM 38.4681 -90.6492 203° Southwest 298 343 15,900 1,500 Climbing Kansas City Center
12:16PM 38.3758 -90.6889 199° South 307 353 17,500 1,380 Climbing Kansas City Center
12:17PM 38.2864 -90.7272 199° South 326 375 18,800 1,260 Climbing Kansas City Center
12:18PM 38.1939 -90.7672 199° South 339 390 20,200 1,440 Climbing Kansas City Center
12:19PM 38.0992 -90.8047 197° South 351 404 21,800 1,680 Climbing Kansas City Center
12:20PM 37.9844 -90.8542 199° South 362 417 23,800 1,740 Climbing Kansas City Center
12:21PM 37.8881 -90.8939 198° South 364 419 25,500 1,500 Climbing Kansas City Center
12:22PM 37.7925 -90.9336 198° South 363 418 27,000 1,380 Climbing Kansas City Center
12:23PM 37.6969 -90.9744 199° South 363 418 28,400 1,440 Climbing Kansas City Center
12:25PM 37.5867 -91.0194 198° South 363 418 30,000 1,380 Climbing Kansas City Center
12:26PM 37.4917 -91.0586 198° South 360 414 31,300 1,020 Climbing Kansas City Center
12:27PM 37.3967 -91.0981 198° South 358 412 32,200 720 Climbing Kansas City Center
12:28PM 37.2989 -91.1392 198° South 364 419 32,900 720 Climbing Kansas City Center
12:29PM 37.2006 -91.1806 199° South 369 425 33,700 720 Climbing Kansas City Center
12:30PM 37.1025 -91.2206 198° South 369 425 34,500 840 Climbing Kansas City Center
12:30PM 37.0600 -91.2381 198° South 371 427 34,900 900 Climbing Memphis Center
12:31PM 36.9597 -91.2761 197° South 371 427 35,800 900 Climbing Memphis Center
12:32PM 36.8617 -91.3189 199° South 371 427 36,700 840 Climbing Memphis Center
12:33PM 36.7633 -91.3619 199° South 371 427 37,500 780 Climbing Memphis Center
12:34PM 36.6650 -91.4019 198° South 371 427 38,300 660 Climbing Memphis Center
12:35PM 36.5667 -91.4394 197° South 371 427 38,900 540 Climbing Memphis Center
12:36PM 36.4558 -91.4844 198° South 376 433 39,400 420 Climbing Memphis Center
12:37PM 36.3575 -91.5244 198° South 376 433 39,800 300 Climbing Memphis Center
12:38PM 36.2569 -91.5642 198° South 382 440 40,000 60 Climbing Memphis Center
12:39PM 36.1503 -91.6061 198° South 387 445 40,000  Level Memphis Center
12:40PM 36.0456 -91.6456 197° South 392 451 40,000  Level Memphis Center
12:41PM 35.9597 -91.6778 197° South 397 457 40,000  Level Memphis Center
12:42PM 35.8403 -91.7322 200° South 387 445 40,000  Level Memphis Center
12:43PM 35.7336 -91.7739 198° South 395 455 40,000  Level Memphis Center
12:44PM 35.6289 -91.8131 197° South 402 463 40,000  Level Memphis Center
12:45PM 35.5219 -91.8569 198° South 402 463 40,000  Level Memphis Center
12:46PM 35.4172 -91.8983 198° South 402 463 40,000  Level Memphis Center
12:47PM 35.3083 -91.9397 197° South 409 471 40,000  Level Memphis Center
12:48PM 35.2014 -91.9808 197° South 409 471 40,000  Level Memphis Center
12:49PM 35.1111 -92.0197 199° South 403 464 40,000  Level Memphis Center
12:50PM 35.0019 -92.0606 197° South 408 470 40,000  Level Memphis Center
12:51PM 34.8931 -92.1017 197° South 408 470 40,000  Level Memphis Center
12:52PM 34.7775 -92.1497 199° South 403 464 40,000  Level Memphis Center
12:53PM 34.6686 -92.1853 195° South 403 464 40,000  Level Memphis Center
12:54PM 34.5597 -92.2083 190° South 403 464 40,000  Level Memphis Center
12:55PM 34.4467 -92.2283 188° South 408 470 40,000  Level Memphis Center
12:56PM 34.3483 -92.2464 189° South 408 470 40,000  Level Memphis Center
12:57PM 34.2311 -92.2664 188° South 418 481 40,000  Level Memphis Center
12:58PM 34.1181 -92.2892 189° South 413 475 40,000  Level Memphis Center
12:59PM 34.0053 -92.3092 188° South 413 475 40,000  Level Memphis Center
01:01PM 33.7875 -92.3503 189° South 397 457 40,000  Level Fort Worth Center
01:02PM 33.6714 -92.3694 188° South 404 465 40,000  Level Fort Worth Center
01:03PM 33.5553 -92.3886 188° South 416 479 40,000  Level Fort Worth Center
01:04PM 33.4414 -92.4100 189° South 416 479 40,000  Level Fort Worth Center
01:05PM 33.3294 -92.4314 189° South 423 487 40,000  Level Fort Worth Center
01:06PM 33.2133 -92.4503 188° South 423 487 40,000  Level Fort Worth Center
01:07PM 33.0975 -92.4717 189° South 423 487 40,000  Level Fort Worth Center
01:08PM 32.9708 -92.4936 188° South 423 487 40,000  Level Fort Worth Center
01:09PM 32.8569 -92.5172 190° South 423 487 40,000  Level Fort Worth Center
01:10PM 32.7408 -92.5358 188° South 423 487 40,000  Level Fort Worth Center
01:12PM 32.5225 -92.5772 189° South 416 479 40,000 -60 Level Houston Center
01:13PM 32.3833 -92.6019 189° South 423 487 39,900  Descending Houston Center
01:14PM 32.2664 -92.6225 188° South 425 489 40,000  Climbing Houston Center
01:15PM 32.1514 -92.6439 189° South 422 486 40,000  Level Houston Center
01:16PM 32.0350 -92.6664 189° South 424 488 40,000  Level Houston Center
01:17PM 31.9311 -92.7311 208° Southwest 424 488 40,000  Level Houston Center
01:18PM 31.8531 -92.8311 227° Southwest 418 481 40,000  Level Houston Center
01:19PM 31.7725 -92.9319 227° Southwest 419 482 40,000  Level Houston Center
01:20PM 31.6781 -93.0497 227° Southwest 420 483 40,000  Level Houston Center
01:21PM 31.6000 -93.1497 228° Southwest 418 481 40,000  Level Houston Center
01:22PM 31.5206 -93.2478 226° Southwest 416 479 40,000  Level Houston Center
01:23PM 31.4439 -93.3494 229° Southwest 415 478 40,000  Level Houston Center
01:24PM 31.3656 -93.4464 227° Southwest 414 476 40,000  Level Houston Center
01:25PM 31.2708 -93.5642 227° Southwest 414 476 40,000 -60 Level Houston Center
01:26PM 31.1928 -93.6603 227° Southwest 410 472 39,900 -1,020 Descending Houston Center
01:28PM 31.1131 -93.7589 227° Southwest 415 478 38,000 -1,920 Descending Houston Center
01:29PM 31.0322 -93.8606 227° Southwest 422 486 36,000 -1,020 Descending Houston Center
01:30PM 30.9567 -93.9539 227° Southwest 414 476 36,000 -60 Level Houston Center
01:31PM 30.8806 -94.0486 227° Southwest 408 470 35,900 -1,860 Descending Houston Center
01:32PM 30.7892 -94.1611 227° Southwest 404 465 32,200 -3,240 Descending Houston Center
01:33PM 30.7111 -94.2564 226° Southwest 408 470 29,300 -2,940 Descending Houston Center
01:34PM 30.6300 -94.3522 225° Southwest 416 479 26,200 -3,060 Descending Houston Center
01:34PM 30.5700 -94.4250 226° Southwest 430 495 24,100 -2,940 Descending Houston Center
01:35PM 30.5475 -94.4525 226° Southwest 429 494 23,200 -3,300 Descending Houston Center
01:35PM 30.4894 -94.5253 227° Southwest 427 491 20,800 -3,120 Descending Houston Center
01:36PM 30.4664 -94.5608 233° Southwest 417 480 20,000 -2,880 Descending Houston Center
01:36PM 30.4217 -94.6286 233° Southwest 387 445 17,900 -2,820 Descending Houston Center
01:37PM 30.4014 -94.6619 235° Southwest 391 450 17,100 -2,520 Descending Houston Center
01:37PM 30.3653 -94.7181 233° Southwest 378 435 15,600 -2,640 Descending Houston Center
01:38PM 30.3389 -94.7606 234° Southwest 381 438 14,400 -2,280 Descending Houston Center
01:38PM 30.2900 -94.8342 232° Southwest 386 444 13,100 -1,380 Descending Houston Center
01:39PM 30.2750 -94.8600 236° Southwest 385 443 13,000 -120 Descending Houston Center
01:39PM 30.2258 -94.9319 232° Southwest 385 443 13,000 -240 Level Houston Center
01:40PM 30.2108 -94.9583 237° Southwest 384 442 12,800 -1,200 Descending Houston Center
01:40PM 30.1672 -95.0239 232° Southwest 381 438 11,900 -1,680 Descending Houston Center
01:41PM 30.1319 -95.0700 229° Southwest 379 436 11,100 -900 Descending Houston Center
01:41PM 30.0856 -95.0919 202° Southwest 382 440 11,000 -420 Descending Houston Center
01:42PM 30.0336 -95.1147 201° Southwest 378 435 10,700 -900 Descending Houston Center
01:42PM 29.9906 -95.1325 200° South 346 398 10,100 -720 Descending Houston Center
01:43PM 29.9481 -95.1525 202° Southwest 338 389 10,000 -300 Descending Houston Center
01:44PM 29.8978 -95.1731 200° South 292 336 9,800 -780 Descending Houston Center
01:44PM 29.8675 -95.1861 201° Southwest 309 356 9,200 -1,380 Descending Houston Center
01:45PM 29.8169 -95.2092 202° Southwest 305 351 8,400 -1,500 Descending Houston Center
01:45PM 29.7892 -95.2208 200° South 306 352 7,700 -1,620 Descending Houston Center
01:46PM 29.7394 -95.2331 192° South 285 328 6,800 -1,680 Descending Houston Center
01:46PM 29.6967 -95.2336 181° South 286 329 6,000 -720 Descending Houston Center
01:47PM 29.6578 -95.2358 183° South 273 314 6,100  Climbing Houston Center
01:47PM 29.6225 -95.2372 182° South 277 319 6,000 -120 Descending Houston Center
01:48PM 29.5803 -95.2381 181° South 266 306 6,000  Level Houston Center
01:48PM 29.5550 -95.2489 200° South 258 297 6,000  Level Houston Center
01:49PM 29.5311 -95.2728 221° Southwest 227 261 6,000  Level Houston Center
01:49PM 29.5081 -95.2981 224° Southwest 233 268 6,000 -120 Level Houston Center
01:50PM 29.4900 -95.3283 236° Southwest 216 249 5,900 -1,260 Descending Houston Center
01:50PM 29.5092 -95.3661 300° West 218 251 4,700 -1,980 Descending Houston Center
01:51PM 29.5203 -95.3847 304° West 211 243 3,900 -1,800 Descending Houston Center
01:51PM 29.5536 -95.3783 North 203 234 2,900 -1,620 Descending Houston Center
01:52PM 29.5708 -95.3617 40° Northeast 184 212 2,100 -1,500 Descending Houston Center
01:52PM 29.5897 -95.3417 43° Northeast 183 211 1,400 -1,020 Descending Houston Center
01:53PM 29.6031 -95.3242 49° Northeast 148 170 1,100 -720 Descending Houston Center
01:53PM 29.6194 -95.3078 41° Northeast 166 191 700 -780 Descending Houston Center
01:54PM 29.6278 -95.2972 48° Northeast 132 152 400 -600 Descending Houston Center
01:54PM 29.6475 -95.2753 44° Northeast 149 171 100 -420 Descending Houston Center